Time;durP1;ratioP1;P1;durP2;ratioP2;P2;SDS_P1;SDS_P2;PMS_P1;PMS_P2;Temp;Humidity;BMP_temperature;BMP_pressure;BME280_temperature;BME280_humidity;BME280_pressure;Samples;Min_cycle;Max_cycle;Signal;HPM_P1;HPM_P2
2022/10/13 00:00:05;;;;;;;18.20;9.33;;;;;;;;;;5065845;27;82004;-53
2022/10/13 00:02:34;;;;;;;16.70;8.60;;;;;;;;;;5066429;27;83771;-53
2022/10/13 00:05:03;;;;;;;16.10;8.27;;;;;;;;;;5065523;27;81949;-53
2022/10/13 00:07:31;;;;;;;16.97;9.37;;;;;;;;;;5046289;27;83193;-54
2022/10/13 00:10:00;;;;;;;15.40;8.87;;;;;;;;;;5043537;27;88835;-53
2022/10/13 00:12:28;;;;;;;16.00;8.87;;;;;;;;;;5042916;27;89282;-53
2022/10/13 00:14:56;;;;;;;13.67;8.77;;;;;;;;;;5043925;27;87063;-54
2022/10/13 00:17:25;;;;;;;13.93;9.17;;;;;;;;;;5042808;27;88762;-53
2022/10/13 00:19:53;;;;;;;19.43;9.07;;;;;;;;;;5042526;27;88659;-53
2022/10/13 00:22:22;;;;;;;16.87;9.60;;;;;;;;;;5042789;27;88375;-53
2022/10/13 00:24:51;;;;;;;13.90;8.50;;;;;;;;;;5043761;27;87615;-53
2022/10/13 00:27:19;;;;;;;18.03;8.37;;;;;;;;;;5058002;27;87117;-53
2022/10/13 00:29:47;;;;;;;17.47;9.87;;;;;;;;;;5052994;27;88925;-54
2022/10/13 00:32:16;;;;;;;16.90;9.87;;;;;;;;;;5055946;27;87882;-54
2022/10/13 00:34:44;;;;;;;18.37;9.57;;;;;;;;;;5063923;27;86883;-53
2022/10/13 00:37:13;;;;;;;19.00;9.20;;;;;;;;;;5052349;27;86253;-53
2022/10/13 00:39:42;;;;;;;17.47;9.57;;;;;;;;;;5044733;27;88980;-53
2022/10/13 00:42:11;;;;;;;14.67;9.97;;;;;;;;;;5061931;27;88713;-54
2022/10/13 00:44:58;;;;;;;19.83;10.00;;;;;;;;;;5053692;27;88231;-54
2022/10/13 00:47:26;;;;;;;15.20;8.03;;;;;;;;;;5049167;27;87007;-53
2022/10/13 00:49:54;;;;;;;23.13;10.40;;;;;;;;;;5063137;27;88278;-53
2022/10/13 00:52:23;;;;;;;15.80;9.43;;;;;;;;;;5049544;27;87560;-54
2022/10/13 00:54:52;;;;;;;20.03;8.40;;;;;;;;;;5056387;27;87603;-54
2022/10/13 00:57:20;;;;;;;13.80;8.97;;;;;;;;;;5062338;27;86912;-52
2022/10/13 00:59:49;;;;;;;15.40;8.60;;;;;;;;;;5062208;27;88864;-53
2022/10/13 01:02:17;;;;;;;12.93;8.23;;;;;;;;;;5057419;27;88801;-53
2022/10/13 01:04:46;;;;;;;18.27;8.83;;;;;;;;;;5044332;27;86973;-53
2022/10/13 01:07:14;;;;;;;15.73;9.60;;;;;;;;;;5044391;27;87069;-53
2022/10/13 01:09:44;;;;;;;13.37;8.10;;;;;;;;;;5058008;27;90024;-54
2022/10/13 01:12:17;;;;;;;17.40;8.87;;;;;;;;;;5061017;27;89728;-53
2022/10/13 01:14:47;;;;;;;15.87;9.00;;;;;;;;;;5061411;27;86983;-54
2022/10/13 01:17:16;;;;;;;15.73;8.73;;;;;;;;;;5057997;27;87032;-53
2022/10/13 01:19:50;;;;;;;13.80;8.23;;;;;;;;;;5042550;27;87853;-53
2022/10/13 01:22:20;;;;;;;15.87;8.10;;;;;;;;;;5046461;27;87494;-53
2022/10/13 01:24:49;;;;;;;14.47;8.80;;;;;;;;;;5059860;27;86984;-53
2022/10/13 01:27:23;;;;;;;13.80;7.53;;;;;;;;;;5062671;27;86319;-53
2022/10/13 01:30:09;;;;;;;10.00;6.70;;;;;;;;;;5062227;27;89016;-53
2022/10/13 01:32:42;;;;;;;9.20;6.00;;;;;;;;;;5061863;27;87910;-53
2022/10/13 01:35:13;;;;;;;18.43;8.30;;;;;;;;;;5059652;27;88084;-53
2022/10/13 01:37:43;;;;;;;12.83;7.17;;;;;;;;;;5061419;27;86846;-53
2022/10/13 01:40:13;;;;;;;10.63;7.17;;;;;;;;;;5046584;27;88546;-53
2022/10/13 01:42:42;;;;;;;10.53;7.13;;;;;;;;;;5041890;27;86861;-53
2022/10/13 01:45:12;;;;;;;10.63;6.10;;;;;;;;;;5043314;27;87026;-53
2022/10/13 01:47:40;;;;;;;11.83;7.30;;;;;;;;;;5047550;27;86953;-52
2022/10/13 01:50:09;;;;;;;11.10;6.73;;;;;;;;;;5056801;27;87998;-53
2022/10/13 01:52:38;;;;;;;9.80;6.33;;;;;;;;;;5043496;27;87603;-54
2022/10/13 01:55:06;;;;;;;10.17;5.83;;;;;;;;;;5042458;27;86996;-53
2022/10/13 01:57:35;;;;;;;9.20;5.50;;;;;;;;;;5041873;27;86900;-54
2022/10/13 02:00:05;;;;;;;14.70;6.67;;;;;;;;;;5041329;27;91235;-54
2022/10/13 02:02:35;;;;;;;7.47;5.30;;;;;;;;;;5042398;27;88592;-55
2022/10/13 02:05:05;;;;;;;6.47;5.27;;;;;;;;;;5043646;27;86877;-54
2022/10/13 02:07:34;;;;;;;11.07;5.67;;;;;;;;;;5041997;27;86948;-54
2022/10/13 02:10:04;;;;;;;7.17;5.17;;;;;;;;;;5041319;27;87939;-54
2022/10/13 02:12:33;;;;;;;11.80;6.10;;;;;;;;;;5046653;27;87795;-53
2022/10/13 02:15:01;;;;;;;9.23;5.23;;;;;;;;;;5061789;27;87122;-53
2022/10/13 02:17:30;;;;;;;7.27;5.27;;;;;;;;;;5060695;27;86298;-54
2022/10/13 02:19:59;;;;;;;7.10;4.60;;;;;;;;;;5061769;27;86826;-54
2022/10/13 02:22:28;;;;;;;9.63;4.87;;;;;;;;;;5046666;27;88689;-54
2022/10/13 02:24:56;;;;;;;8.33;4.40;;;;;;;;;;5042486;27;87999;-53
2022/10/13 02:27:24;;;;;;;7.57;5.23;;;;;;;;;;5042128;27;88387;-53
2022/10/13 02:29:53;;;;;;;7.70;4.80;;;;;;;;;;5050367;27;87820;-53
2022/10/13 02:32:21;;;;;;;6.50;4.23;;;;;;;;;;5042485;27;91017;-53
2022/10/13 02:34:50;;;;;;;6.93;4.50;;;;;;;;;;5040970;27;86996;-53
2022/10/13 02:37:19;;;;;;;7.97;4.70;;;;;;;;;;5047547;27;86996;-53
2022/10/13 02:39:48;;;;;;;5.87;4.40;;;;;;;;;;5060952;27;87877;-53
2022/10/13 02:42:16;;;;;;;7.70;4.57;;;;;;;;;;5057058;27;87994;-52
2022/10/13 02:44:45;;;;;;;5.17;4.17;;;;;;;;;;5041326;27;87044;-52
2022/10/13 02:47:13;;;;;;;5.57;4.20;;;;;;;;;;5041583;27;87104;-54
2022/10/13 02:49:41;;;;;;;6.77;4.13;;;;;;;;;;5046643;27;89100;-53
2022/10/13 02:52:09;;;;;;;6.67;4.03;;;;;;;;;;5052312;27;88542;-53
2022/10/13 02:54:39;;;;;;;8.20;4.37;;;;;;;;;;5041613;27;86940;-54
2022/10/13 02:57:08;;;;;;;7.23;4.23;;;;;;;;;;5053879;27;87030;-53
2022/10/13 02:59:36;;;;;;;7.03;3.53;;;;;;;;;;5042010;27;88131;-53
2022/10/13 03:02:04;;;;;;;10.47;3.90;;;;;;;;;;5050531;27;87822;-54
2022/10/13 03:04:32;;;;;;;5.57;3.20;;;;;;;;;;5057027;27;87078;-53
2022/10/13 03:07:01;;;;;;;8.23;4.17;;;;;;;;;;5055665;27;86336;-54
2022/10/13 03:09:29;;;;;;;4.30;3.13;;;;;;;;;;5056824;27;87217;-53
2022/10/13 03:11:59;;;;;;;5.17;3.63;;;;;;;;;;5047138;27;88796;-54
2022/10/13 03:14:27;;;;;;;5.87;3.47;;;;;;;;;;5051744;27;88125;-53
2022/10/13 03:16:55;;;;;;;5.23;3.17;;;;;;;;;;5044114;27;88222;-54
2022/10/13 03:19:24;;;;;;;6.30;3.27;;;;;;;;;;5047197;27;88557;-54
2022/10/13 03:21:52;;;;;;;6.27;3.60;;;;;;;;;;5040915;27;89018;-54
2022/10/13 03:24:21;;;;;;;4.03;2.73;;;;;;;;;;5058064;27;86973;-54
2022/10/13 03:26:49;;;;;;;6.43;4.00;;;;;;;;;;5040825;27;86990;-54
2022/10/13 03:29:18;;;;;;;5.07;3.53;;;;;;;;;;5041724;27;87866;-53
2022/10/13 03:31:47;;;;;;;6.57;3.57;;;;;;;;;;5050481;27;87676;-53
2022/10/13 03:34:15;;;;;;;3.70;2.97;;;;;;;;;;5049996;27;86814;-53
2022/10/13 03:36:44;;;;;;;5.83;3.40;;;;;;;;;;5059761;27;87212;-54
2022/10/13 03:39:12;;;;;;;4.87;3.60;;;;;;;;;;5050853;27;89119;-54
2022/10/13 03:41:40;;;;;;;6.07;3.60;;;;;;;;;;5039256;27;89649;-54
2022/10/13 03:44:10;;;;;;;6.07;3.70;;;;;;;;;;5040580;27;87099;-53
2022/10/13 03:46:40;;;;;;;6.63;4.03;;;;;;;;;;5040423;27;87102;-54
2022/10/13 03:49:08;;;;;;;6.37;3.77;;;;;;;;;;5043541;27;88101;-54
2022/10/13 03:51:36;;;;;;;5.67;3.00;;;;;;;;;;5043685;27;88738;-53
2022/10/13 03:54:05;;;;;;;5.67;4.03;;;;;;;;;;5045649;27;87156;-53
2022/10/13 03:56:33;;;;;;;6.57;4.33;;;;;;;;;;5061621;27;86469;-53
2022/10/13 03:59:03;;;;;;;8.77;4.40;;;;;;;;;;5063904;27;88228;-53
2022/10/13 04:01:32;;;;;;;7.77;4.03;;;;;;;;;;5059917;27;87066;-53
2022/10/13 04:04:02;;;;;;;5.63;3.63;;;;;;;;;;5064000;27;87966;-54
2022/10/13 04:06:30;;;;;;;9.00;4.77;;;;;;;;;;5060921;27;87002;-53
2022/10/13 04:08:59;;;;;;;9.67;4.80;;;;;;;;;;5063506;27;87932;-53
2022/10/13 04:11:27;;;;;;;7.43;4.97;;;;;;;;;;5059987;27;87891;-53
2022/10/13 04:13:56;;;;;;;8.50;5.13;;;;;;;;;;5057360;27;87025;-53
2022/10/13 04:16:25;;;;;;;11.20;5.83;;;;;;;;;;5044963;27;87090;-53
2022/10/13 04:18:54;;;;;;;7.57;5.23;;;;;;;;;;5055388;27;88292;-53
2022/10/13 04:21:23;;;;;;;8.63;4.60;;;;;;;;;;5064201;27;87488;-53
2022/10/13 04:23:52;;;;;;;11.13;5.50;;;;;;;;;;5052372;27;87025;-54
2022/10/13 04:26:21;;;;;;;5.47;4.63;;;;;;;;;;5052440;27;86942;-53
2022/10/13 04:28:49;;;;;;;11.20;5.70;;;;;;;;;;5053913;27;88969;-54
2022/10/13 04:31:18;;;;;;;10.83;5.47;;;;;;;;;;5058635;27;89623;-54
2022/10/13 04:33:46;;;;;;;10.27;5.33;;;;;;;;;;5057575;27;87708;-52
2022/10/13 04:36:14;;;;;;;12.87;5.63;;;;;;;;;;5043402;27;87028;-53
2022/10/13 04:38:44;;;;;;;11.43;5.20;;;;;;;;;;5050978;27;87722;-54
2022/10/13 04:41:12;;;;;;;11.60;5.23;;;;;;;;;;5063047;27;86927;-54
2022/10/13 04:43:41;;;;;;;11.60;6.17;;;;;;;;;;5063605;27;86913;-53
2022/10/13 04:46:09;;;;;;;14.83;5.87;;;;;;;;;;5049380;27;86243;-53
2022/10/13 04:48:38;;;;;;;10.93;5.37;;;;;;;;;;5043667;27;88121;-53
2022/10/13 04:51:06;;;;;;;12.83;6.70;;;;;;;;;;5050555;27;88968;-53
2022/10/13 04:53:34;;;;;;;14.27;6.20;;;;;;;;;;5050189;27;87943;-53
2022/10/13 04:56:05;;;;;;;14.30;6.57;;;;;;;;;;5042887;27;87375;-53
2022/10/13 04:58:34;;;;;;;14.33;7.23;;;;;;;;;;5044316;27;88146;-53
2022/10/13 05:01:02;;;;;;;13.63;6.33;;;;;;;;;;5061108;27;88809;-53
2022/10/13 05:03:30;;;;;;;16.00;6.67;;;;;;;;;;5045539;27;86778;-52
2022/10/13 05:05:59;;;;;;;9.97;5.37;;;;;;;;;;5045581;27;87071;-53
2022/10/13 05:08:27;;;;;;;13.60;7.37;;;;;;;;;;5048921;27;88951;-53
2022/10/13 05:10:55;;;;;;;11.33;5.93;;;;;;;;;;5046010;27;87754;-53
2022/10/13 05:13:25;;;;;;;16.17;6.23;;;;;;;;;;5060819;27;86929;-54
2022/10/13 05:15:53;;;;;;;10.73;5.23;;;;;;;;;;5044753;27;87035;-53
2022/10/13 05:18:22;;;;;;;10.30;5.77;;;;;;;;;;5041874;27;88619;-54
2022/10/13 05:20:50;;;;;;;15.33;6.37;;;;;;;;;;5042217;27;88605;-54
2022/10/13 05:23:18;;;;;;;16.47;6.07;;;;;;;;;;5062149;27;87015;-53
2022/10/13 05:25:47;;;;;;;9.40;5.67;;;;;;;;;;5058491;27;86811;-53
2022/10/13 05:28:15;;;;;;;8.53;5.17;;;;;;;;;;5042846;27;87716;-52
2022/10/13 05:30:45;;;;;;;8.63;5.50;;;;;;;;;;5045523;27;88317;-54
2022/10/13 05:33:13;;;;;;;8.60;5.20;;;;;;;;;;5063299;27;86823;-54
2022/10/13 05:35:41;;;;;;;16.93;5.53;;;;;;;;;;5061313;27;86484;-55
2022/10/13 05:38:09;;;;;;;7.10;4.37;;;;;;;;;;5061097;27;87902;-54
2022/10/13 05:40:38;;;;;;;8.20;5.17;;;;;;;;;;5052414;27;87838;-54
2022/10/13 05:43:06;;;;;;;9.37;4.90;;;;;;;;;;5050340;27;88041;-53
2022/10/13 05:45:34;;;;;;;8.57;5.50;;;;;;;;;;5052526;27;87124;-54
2022/10/13 05:48:04;;;;;;;8.73;4.63;;;;;;;;;;5054437;27;87795;-55
2022/10/13 05:50:32;;;;;;;10.90;5.90;;;;;;;;;;5062567;27;87266;-54
2022/10/13 05:53:03;;;;;;;8.27;4.77;;;;;;;;;;5062828;27;86890;-54
2022/10/13 05:55:31;;;;;;;8.57;4.80;;;;;;;;;;5053667;27;88410;-54
2022/10/13 05:57:59;;;;;;;10.70;5.17;;;;;;;;;;5042614;27;87855;-53
2022/10/13 06:00:28;;;;;;;8.07;4.53;;;;;;;;;;5048541;27;87819;-54
2022/10/13 06:02:58;;;;;;;12.57;4.97;;;;;;;;;;5062491;27;86834;-53
2022/10/13 06:05:27;;;;;;;7.97;5.17;;;;;;;;;;5054738;27;86958;-56
2022/10/13 06:07:56;;;;;;;11.30;4.80;;;;;;;;;;5041561;27;89040;-54
2022/10/13 06:10:24;;;;;;;7.37;4.07;;;;;;;;;;5051839;27;89948;-54
2022/10/13 06:12:52;;;;;;;6.57;5.20;;;;;;;;;;5055383;27;86905;-53
2022/10/13 06:15:21;;;;;;;10.77;4.53;;;;;;;;;;5047541;27;87082;-53
2022/10/13 06:17:55;;;;;;;8.83;4.57;;;;;;;;;;5061668;27;88031;-55
2022/10/13 06:20:23;;;;;;;9.33;5.17;;;;;;;;;;5060280;27;87823;-53
2022/10/13 06:22:53;;;;;;;9.70;5.80;;;;;;;;;;5062491;27;87301;-53
2022/10/13 06:25:21;;;;;;;6.93;4.90;;;;;;;;;;5054295;27;86808;-53
2022/10/13 06:27:50;;;;;;;8.37;4.53;;;;;;;;;;5061945;27;87863;-53
2022/10/13 06:30:18;;;;;;;9.43;4.40;;;;;;;;;;5053894;27;87890;-53
2022/10/13 06:32:47;;;;;;;6.67;4.10;;;;;;;;;;5059776;27;88149;-53
2022/10/13 06:35:16;;;;;;;10.00;4.50;;;;;;;;;;5053862;27;86971;-54
2022/10/13 06:37:47;;;;;;;9.50;4.77;;;;;;;;;;5041490;27;88265;-54
2022/10/13 06:40:17;;;;;;;10.83;5.33;;;;;;;;;;5057320;27;87562;-54
2022/10/13 06:42:49;;;;;;;7.27;4.03;;;;;;;;;;5041578;27;87097;-53
2022/10/13 06:45:18;;;;;;;8.57;4.63;;;;;;;;;;5040881;27;87015;-54
2022/10/13 06:47:46;;;;;;;4.90;3.40;;;;;;;;;;5040455;27;87827;-52
2022/10/13 06:50:15;;;;;;;7.33;3.90;;;;;;;;;;5040092;28;88989;-53
2022/10/13 06:52:43;;;;;;;7.03;3.87;;;;;;;;;;5040530;27;86975;-53
2022/10/13 06:55:11;;;;;;;5.73;3.43;;;;;;;;;;5055017;27;87086;-53
2022/10/13 06:57:41;;;;;;;6.17;3.83;;;;;;;;;;5039187;27;89895;-54
2022/10/13 07:00:10;;;;;;;7.17;3.50;;;;;;;;;;5040225;27;89793;-54
2022/10/13 07:02:39;;;;;;;8.03;3.20;;;;;;;;;;5040872;27;86811;-53
2022/10/13 07:05:07;;;;;;;7.03;3.47;;;;;;;;;;5041102;27;87010;-55
2022/10/13 07:07:36;;;;;;;9.90;4.00;;;;;;;;;;5052887;27;88606;-56
2022/10/13 07:10:04;;;;;;;3.30;2.50;;;;;;;;;;5061372;27;89020;-54
2022/10/13 07:12:32;;;;;;;6.07;3.13;;;;;;;;;;5059781;27;87033;-54
2022/10/13 07:15:02;;;;;;;2.57;2.27;;;;;;;;;;5048829;27;86179;-56
2022/10/13 07:17:31;;;;;;;6.10;2.97;;;;;;;;;;5061298;27;89248;-55
2022/10/13 07:20:00;;;;;;;5.77;3.37;;;;;;;;;;5061480;27;87814;-54
2022/10/13 07:22:34;;;;;;;8.00;3.47;;;;;;;;;;5059465;27;87933;-54
2022/10/13 07:25:02;;;;;;;6.73;3.30;;;;;;;;;;5052887;27;87006;-53
2022/10/13 07:27:31;;;;;;;4.97;2.80;;;;;;;;;;5064738;27;87923;-55
2022/10/13 07:29:59;;;;;;;3.67;2.53;;;;;;;;;;5055814;27;88936;-53
2022/10/13 07:32:29;;;;;;;7.67;3.63;;;;;;;;;;5057289;27;87126;-54
2022/10/13 07:34:57;;;;;;;6.93;2.50;;;;;;;;;;5049126;27;88656;-55
2022/10/13 07:37:25;;;;;;;4.13;2.73;;;;;;;;;;5049340;27;88024;-54
2022/10/13 07:39:54;;;;;;;3.83;2.97;;;;;;;;;;5065107;27;87789;-55
2022/10/13 07:42:22;;;;;;;8.80;2.27;;;;;;;;;;5058602;27;87708;-56
2022/10/13 07:44:50;;;;;;;3.73;2.87;;;;;;;;;;5050067;27;86982;-54
2022/10/13 07:47:19;;;;;;;3.63;2.20;;;;;;;;;;5064382;27;89091;-54
2022/10/13 07:49:49;;;;;;;6.67;2.17;;;;;;;;;;5051109;27;89669;-55
2022/10/13 07:52:17;;;;;;;2.20;1.73;;;;;;;;;;5045308;27;87036;-56
2022/10/13 07:54:46;;;;;;;3.80;2.07;;;;;;;;;;5054838;27;87185;-54
2022/10/13 07:57:15;;;;;;;2.67;1.87;;;;;;;;;;5060527;27;89066;-55
2022/10/13 07:59:43;;;;;;;4.80;2.43;;;;;;;;;;5064192;27;89003;-56
2022/10/13 08:02:13;;;;;;;3.23;2.23;;;;;;;;;;5063776;27;86983;-56
2022/10/13 08:04:42;;;;;;;3.33;2.40;;;;;;;;;;5064813;27;86267;-55
2022/10/13 08:07:11;;;;;;;2.97;1.63;;;;;;;;;;5058915;27;88282;-55
2022/10/13 08:09:40;;;;;;;4.07;2.17;;;;;;;;;;5049782;27;87972;-55
2022/10/13 08:12:08;;;;;;;2.03;1.80;;;;;;;;;;5056553;27;87799;-55
2022/10/13 08:14:36;;;;;;;2.77;1.90;;;;;;;;;;5047914;27;87056;-55
2022/10/13 08:17:05;;;;;;;3.47;1.60;;;;;;;;;;5043088;27;88338;-55
2022/10/13 08:19:33;;;;;;;4.50;1.77;;;;;;;;;;5043598;27;87948;-54
2022/10/13 08:22:02;;;;;;;2.13;1.37;;;;;;;;;;5042923;27;86933;-55
2022/10/13 08:24:38;;;;;;;3.63;1.60;;;;;;;;;;5043595;27;87062;-54
2022/10/13 08:27:06;;;;;;;2.60;1.97;;;;;;;;;;5042253;27;87987;-55
2022/10/13 08:29:35;;;;;;;1.87;1.20;;;;;;;;;;5043549;27;87664;-54
2022/10/13 08:32:04;;;;;;;5.17;1.60;;;;;;;;;;5047922;27;86972;-53
2022/10/13 08:34:32;;;;;;;1.40;1.30;;;;;;;;;;5058971;27;87116;-54
2022/10/13 08:37:01;;;;;;;2.23;1.37;;;;;;;;;;5061324;27;88994;-54
2022/10/13 08:39:29;;;;;;;2.43;1.30;;;;;;;;;;5058684;27;87411;-53
2022/10/13 08:41:59;;;;;;;3.77;1.20;;;;;;;;;;5059271;27;88740;-55
2022/10/13 08:44:34;;;;;;;1.80;1.30;;;;;;;;;;5059393;27;86998;-55
2022/10/13 08:47:30;;;;;;;2.67;1.50;;;;;;;;;;5048188;27;87691;-55
2022/10/13 08:49:58;;;;;;;1.50;1.40;;;;;;;;;;5049946;27;87075;-54
2022/10/13 08:52:28;;;;;;;2.57;1.43;;;;;;;;;;5055143;27;87026;-55
2022/10/13 08:54:57;;;;;;;2.77;1.30;;;;;;;;;;5055932;27;86385;-54
2022/10/13 08:57:27;;;;;;;1.53;1.10;;;;;;;;;;5056154;27;90028;-55
2022/10/13 08:59:55;;;;;;;1.43;1.23;;;;;;;;;;5051872;27;87815;-52
2022/10/13 09:02:23;;;;;;;2.07;1.40;;;;;;;;;;5063205;27;87672;-51
2022/10/13 09:04:52;;;;;;;2.47;1.33;;;;;;;;;;5048952;27;87135;-53
2022/10/13 09:07:21;;;;;;;1.90;1.17;;;;;;;;;;5042707;27;87856;-54
2022/10/13 09:09:50;;;;;;;4.20;1.07;;;;;;;;;;5043145;27;87755;-54
2022/10/13 09:12:20;;;;;;;3.80;1.27;;;;;;;;;;5043364;27;87009;-54
2022/10/13 09:14:58;;;;;;;2.10;1.70;;;;;;;;;;5042922;27;86927;-54
2022/10/13 09:17:27;;;;;;;1.73;1.10;;;;;;;;;;5060154;27;87840;-54
2022/10/13 09:19:59;;;;;;;3.23;1.20;;;;;;;;;;5063638;27;87538;-55
2022/10/13 09:22:27;;;;;;;2.60;1.00;;;;;;;;;;5063380;27;87127;-52
2022/10/13 09:25:10;;;;;;;1.70;1.30;;;;;;;;;;5063564;27;87003;-54
2022/10/13 09:27:42;;;;;;;1.93;1.60;;;;;;;;;;5062626;27;87958;-54
2022/10/13 09:30:25;;;;;;;3.63;1.80;;;;;;;;;;5062886;27;89812;-54
2022/10/13 09:32:57;;;;;;;5.90;1.73;;;;;;;;;;5063592;27;86745;-54
2022/10/13 09:35:25;;;;;;;4.13;1.83;;;;;;;;;;5063302;27;86914;-55
2022/10/13 09:38:02;;;;;;;1.93;1.70;;;;;;;;;;5063022;27;88882;-55
2022/10/13 09:40:31;;;;;;;4.23;1.73;;;;;;;;;;5062887;27;88684;-54
2022/10/13 09:42:59;;;;;;;7.80;2.10;;;;;;;;;;5062467;27;87014;-52
2022/10/13 09:45:30;;;;;;;5.17;2.03;;;;;;;;;;5062248;27;86284;-50
2022/10/13 09:47:58;;;;;;;5.13;1.60;;;;;;;;;;5062967;27;89099;-50
2022/10/13 09:50:27;;;;;;;2.17;1.63;;;;;;;;;;5062392;27;86926;-50
2022/10/13 09:53:09;;;;;;;2.33;1.80;;;;;;;;;;5057333;27;87996;-50
2022/10/13 09:55:37;;;;;;;2.73;2.00;;;;;;;;;;5046097;27;86864;-50
2022/10/13 09:58:06;;;;;;;2.67;1.63;;;;;;;;;;5062287;27;86981;-50
2022/10/13 10:00:36;;;;;;;2.00;1.40;;;;;;;;;;5062711;27;87798;-50
2022/10/13 10:03:06;;;;;;;3.17;1.53;;;;;;;;;;5060012;27;87603;-50
2022/10/13 10:05:38;;;;;;;2.33;1.67;;;;;;;;;;5053382;27;87523;-50
2022/10/13 10:08:10;;;;;;;2.23;1.70;;;;;;;;;;5043230;27;89088;-50
2022/10/13 10:10:40;;;;;;;2.73;1.37;;;;;;;;;;5062299;27;87474;-50
2022/10/13 10:13:10;;;;;;;3.20;1.70;;;;;;;;;;5061990;27;86857;-50
2022/10/13 10:15:44;;;;;;;4.70;2.67;;;;;;;;;;5062165;27;86910;-51
2022/10/13 10:18:13;;;;;;;5.13;1.67;;;;;;;;;;5057047;27;89043;-50
2022/10/13 10:20:53;;;;;;;2.07;1.87;;;;;;;;;;5041959;27;88549;-50
2022/10/13 10:23:23;;;;;;;1.07;0.90;;;;;;;;;;5049849;27;86990;-51
2022/10/13 10:25:52;;;;;;;3.53;1.20;;;;;;;;;;5061316;27;87020;-50
2022/10/13 10:28:34;;;;;;;2.40;1.53;;;;;;;;;;5060987;27;87756;-51
2022/10/13 10:31:06;;;;;;;3.03;1.57;;;;;;;;;;5061323;27;87613;-50
2022/10/13 10:33:36;;;;;;;2.73;1.43;;;;;;;;;;5061829;27;87030;-51
2022/10/13 10:36:07;;;;;;;1.47;1.30;;;;;;;;;;5048900;27;86190;-50
2022/10/13 10:38:36;;;;;;;2.63;1.43;;;;;;;;;;5041747;27;89130;-51
2022/10/13 10:41:06;;;;;;;1.23;1.13;;;;;;;;;;5041654;27;87040;-50
2022/10/13 10:43:44;;;;;;;2.43;1.37;;;;;;;;;;5041197;27;87907;-50
2022/10/13 10:46:15;;;;;;;2.73;1.33;;;;;;;;;;5042237;27;86966;-50
2022/10/13 10:48:44;;;;;;;1.87;1.10;;;;;;;;;;5041764;27;88857;-50
2022/10/13 10:51:12;;;;;;;0.97;0.93;;;;;;;;;;5041477;27;87989;-50
2022/10/13 10:53:44;;;;;;;3.37;1.20;;;;;;;;;;5057466;27;87010;-50
2022/10/13 10:56:13;;;;;;;4.00;1.63;;;;;;;;;;5062255;27;86916;-50
2022/10/13 10:58:43;;;;;;;2.00;1.70;;;;;;;;;;5065716;27;89024;-50
2022/10/13 11:01:18;;;;;;;2.40;1.90;;;;;;;;;;5065451;27;88668;-51
2022/10/13 11:03:47;;;;;;;2.90;1.60;;;;;;;;;;5065443;27;86977;-50
2022/10/13 11:06:22;;;;;;;3.57;1.73;;;;;;;;;;5065391;27;87010;-50
2022/10/13 11:08:51;;;;;;;1.90;1.60;;;;;;;;;;5057388;27;89255;-50
2022/10/13 11:11:32;;;;;;;1.47;1.10;;;;;;;;;;5046560;27;89855;-50
2022/10/13 11:14:20;;;;;;;5.43;1.73;;;;;;;;;;5045021;27;87535;-50
2022/10/13 11:17:02;;;;;;;3.23;1.70;;;;;;;;;;5049428;27;87027;-51
2022/10/13 11:19:31;;;;;;;4.07;2.03;;;;;;;;;;5050081;27;88590;-51
2022/10/13 11:22:13;;;;;;;4.97;1.80;;;;;;;;;;5046528;27;88757;-51
2022/10/13 11:24:57;;;;;;;4.50;1.40;;;;;;;;;;5062899;27;87323;-51
2022/10/13 11:27:26;;;;;;;2.53;1.57;;;;;;;;;;5064665;27;86261;-51
2022/10/13 11:29:56;;;;;;;2.83;2.33;;;;;;;;;;5064981;27;89029;-51
2022/10/13 11:32:44;;;;;;;3.70;2.07;;;;;;;;;;5064951;27;87832;-51
2022/10/13 11:35:21;;;;;;;1.90;1.23;;;;;;;;;;5064877;27;87972;-51
2022/10/13 11:37:52;;;;;;;2.00;1.27;;;;;;;;;;5064875;27;86959;-50
2022/10/13 11:40:33;;;;;;;2.00;1.83;;;;;;;;;;5064648;27;88014;-50
2022/10/13 11:43:12;;;;;;;3.83;1.67;;;;;;;;;;5064414;27;87540;-51
2022/10/13 11:45:54;;;;;;;2.33;1.73;;;;;;;;;;5064983;27;86885;-50
2022/10/13 11:48:40;;;;;;;4.53;1.83;;;;;;;;;;5065399;27;87006;-50
2022/10/13 11:51:13;;;;;;;5.30;1.67;;;;;;;;;;5064906;27;89212;-50
2022/10/13 11:53:44;;;;;;;2.20;1.23;;;;;;;;;;5064449;27;86251;-50
2022/10/13 11:56:19;;;;;;;3.67;1.43;;;;;;;;;;5064889;27;87080;-50
2022/10/13 11:58:47;;;;;;;2.87;1.83;;;;;;;;;;5064326;27;86956;-51
2022/10/13 12:01:18;;;;;;;2.60;1.53;;;;;;;;;;5063689;27;90116;-51
2022/10/13 12:03:47;;;;;;;2.23;1.80;;;;;;;;;;5064606;27;88535;-51
2022/10/13 12:06:31;;;;;;;4.70;2.17;;;;;;;;;;5064429;27;87539;-50
2022/10/13 12:09:01;;;;;;;1.63;1.40;;;;;;;;;;5063325;27;86903;-50
2022/10/13 12:11:29;;;;;;;2.83;1.63;;;;;;;;;;5063255;27;88185;-50
2022/10/13 12:13:58;;;;;;;5.03;2.37;;;;;;;;;;5064227;27;88742;-50
2022/10/13 12:16:26;;;;;;;4.17;2.17;;;;;;;;;;5064153;27;87101;-50
2022/10/13 12:18:54;;;;;;;2.40;2.10;;;;;;;;;;5064446;27;86276;-50
2022/10/13 12:21:24;;;;;;;2.40;1.80;;;;;;;;;;5064103;27;88878;-50
2022/10/13 12:23:55;;;;;;;3.80;1.97;;;;;;;;;;5064157;27;87732;-50
2022/10/13 12:26:24;;;;;;;2.33;1.80;;;;;;;;;;5063177;27;87853;-50
2022/10/13 12:28:53;;;;;;;3.20;1.83;;;;;;;;;;5063228;27;87041;-50
2022/10/13 12:31:22;;;;;;;2.47;1.80;;;;;;;;;;5063814;27;88061;-51
2022/10/13 12:33:54;;;;;;;3.03;2.00;;;;;;;;;;5063644;27;88663;-50
2022/10/13 12:36:23;;;;;;;3.50;1.43;;;;;;;;;;5064149;27;86935;-52
2022/10/13 12:38:54;;;;;;;4.70;1.87;;;;;;;;;;5064296;27;86917;-51
2022/10/13 12:41:24;;;;;;;4.40;2.00;;;;;;;;;;5063393;27;88047;-50
2022/10/13 12:43:52;;;;;;;2.83;1.87;;;;;;;;;;5063756;27;87777;-50
2022/10/13 12:46:41;;;;;;;2.07;1.53;;;;;;;;;;5063985;27;87133;-50
2022/10/13 12:49:13;;;;;;;2.67;2.07;;;;;;;;;;5059396;27;86963;-50
2022/10/13 12:51:41;;;;;;;3.37;2.37;;;;;;;;;;5062883;27;88053;-49
2022/10/13 12:54:13;;;;;;;3.90;1.93;;;;;;;;;;5063484;27;89659;-50
2022/10/13 12:56:42;;;;;;;2.20;1.67;;;;;;;;;;5063734;27;86875;-50
2022/10/13 12:59:13;;;;;;;3.47;2.20;;;;;;;;;;5063714;27;87053;-52
2022/10/13 13:01:42;;;;;;;1.73;1.43;;;;;;;;;;5063600;27;88799;-52
2022/10/13 13:04:17;;;;;;;5.30;1.93;;;;;;;;;;5063395;27;89167;-52
2022/10/13 13:07:03;;;;;;;4.53;2.50;;;;;;;;;;5063813;27;86977;-52
2022/10/13 13:09:33;;;;;;;3.43;2.07;;;;;;;;;;5063943;27;86084;-52
2022/10/13 13:12:22;;;;;;;2.77;2.13;;;;;;;;;;5063417;27;87851;-51
2022/10/13 13:14:53;;;;;;;4.63;2.23;;;;;;;;;;5063227;27;87798;-52
2022/10/13 13:17:22;;;;;;;8.67;2.70;;;;;;;;;;5063368;27;87926;-52
2022/10/13 13:20:19;;;;;;;4.13;2.83;;;;;;;;;;5063231;27;86938;-52
2022/10/13 13:22:49;;;;;;;2.13;1.83;;;;;;;;;;5061763;27;88115;-52
2022/10/13 13:25:19;;;;;;;5.40;2.53;;;;;;;;;;5061401;27;87912;-52
2022/10/13 13:27:47;;;;;;;4.00;2.60;;;;;;;;;;5062170;27;87007;-51
2022/10/13 13:30:16;;;;;;;3.40;2.40;;;;;;;;;;5061823;27;87146;-51
2022/10/13 13:32:44;;;;;;;3.37;2.07;;;;;;;;;;5062990;27;89154;-51
2022/10/13 13:35:12;;;;;;;4.83;2.20;;;;;;;;;;5063118;27;87865;-51
2022/10/13 13:37:42;;;;;;;2.73;2.27;;;;;;;;;;5060370;27;86990;-51
2022/10/13 13:40:14;;;;;;;4.20;2.67;;;;;;;;;;5062531;27;87563;-51
2022/10/13 13:42:44;;;;;;;2.00;1.80;;;;;;;;;;5062227;27;88996;-51
2022/10/13 13:45:13;;;;;;;4.00;2.40;;;;;;;;;;5060520;27;89803;-51
2022/10/13 13:47:41;;;;;;;5.13;2.87;;;;;;;;;;5061867;27;87210;-51
2022/10/13 13:50:11;;;;;;;3.30;1.83;;;;;;;;;;5062272;27;87005;-51
2022/10/13 13:52:40;;;;;;;3.67;2.53;;;;;;;;;;5061885;27;88013;-50
2022/10/13 13:55:09;;;;;;;3.80;2.07;;;;;;;;;;5061945;27;87665;-50
2022/10/13 13:57:37;;;;;;;2.93;2.27;;;;;;;;;;5062623;27;87073;-50
2022/10/13 14:00:07;;;;;;;5.13;2.67;;;;;;;;;;5062186;27;86423;-50
2022/10/13 14:02:36;;;;;;;5.33;2.53;;;;;;;;;;5062530;27;88106;-50
2022/10/13 14:05:04;;;;;;;3.70;2.60;;;;;;;;;;5062688;27;88807;-50
2022/10/13 14:07:33;;;;;;;3.50;2.17;;;;;;;;;;5062487;27;87948;-50
2022/10/13 14:10:01;;;;;;;4.13;2.23;;;;;;;;;;5062918;27;87162;-50
2022/10/13 14:12:30;;;;;;;3.53;2.23;;;;;;;;;;5062084;27;88071;-50
2022/10/13 14:14:58;;;;;;;2.97;1.93;;;;;;;;;;5062059;27;87717;-50
2022/10/13 14:17:28;;;;;;;3.53;2.23;;;;;;;;;;5062395;27;87015;-50
2022/10/13 14:19:56;;;;;;;5.80;2.27;;;;;;;;;;5062584;27;87041;-51
2022/10/13 14:22:25;;;;;;;3.23;1.63;;;;;;;;;;5062699;27;89226;-51
2022/10/13 14:24:54;;;;;;;2.83;1.87;;;;;;;;;;5063038;27;86441;-51
2022/10/13 14:27:22;;;;;;;1.67;1.57;;;;;;;;;;5062470;27;86976;-51
2022/10/13 14:29:51;;;;;;;2.90;1.83;;;;;;;;;;5062127;27;87087;-51
2022/10/13 14:32:19;;;;;;;3.47;1.87;;;;;;;;;;5060776;27;89000;-50
2022/10/13 14:34:49;;;;;;;1.97;1.57;;;;;;;;;;5062130;27;88453;-50
2022/10/13 14:37:18;;;;;;;2.17;1.07;;;;;;;;;;5062376;27;86850;-51
2022/10/13 14:39:50;;;;;;;1.80;1.40;;;;;;;;;;5062524;27;86828;-52
2022/10/13 14:42:18;;;;;;;1.30;1.20;;;;;;;;;;5062048;27;89103;-53
2022/10/13 14:44:47;;;;;;;1.17;0.97;;;;;;;;;;5061926;27;87604;-50
2022/10/13 14:47:15;;;;;;;1.90;1.17;;;;;;;;;;5062334;27;86840;-52
2022/10/13 14:49:43;;;;;;;1.10;1.00;;;;;;;;;;5062565;27;86295;-52
2022/10/13 14:52:13;;;;;;;1.57;0.90;;;;;;;;;;5062287;27;89264;-50
2022/10/13 14:54:41;;;;;;;1.03;0.93;;;;;;;;;;5062028;27;87800;-52
2022/10/13 14:57:14;;;;;;;1.47;1.37;;;;;;;;;;5061367;27;88169;-50